Time;durP1;ratioP1;P1;durP2;ratioP2;P2;SDS_P1;SDS_P2;PMS_P1;PMS_P2;Temp;Humidity;BMP_temperature;BMP_pressure;BME280_temperature;BME280_humidity;BME280_pressure;Samples;Min_cycle;Max_cycle;Signal;HPM_P1;HPM_P2
2021/04/16 00:02:13;;;;;;;0.50;0.40;;;4.20;99.90;;;;;;5009196;28;20183;-80
2021/04/16 00:04:38;;;;;;;0.30;0.30;;;4.20;99.90;;;;;;5010381;28;20211;-81
2021/04/16 00:07:04;;;;;;;0.50;0.50;;;4.20;99.90;;;;;;5008892;28;20266;-81
2021/04/16 00:09:30;;;;;;;0.73;0.50;;;4.20;99.90;;;;;;5009030;28;20218;-80
2021/04/16 00:11:55;;;;;;;0.80;0.60;;;4.20;99.90;;;;;;5009996;28;20197;-80
2021/04/16 00:14:21;;;;;;;0.40;0.40;;;4.20;99.90;;;;;;5008210;28;20199;-80
2021/04/16 00:16:47;;;;;;;0.90;0.43;;;4.20;99.90;;;;;;5008389;28;20184;-81
2021/04/16 00:19:14;;;;;;;0.47;0.47;;;4.10;99.90;;;;;;5009039;28;20218;-80
2021/04/16 00:21:40;;;;;;;0.33;0.33;;;4.20;99.90;;;;;;5009526;28;20184;-80
2021/04/16 00:24:10;;;;;;;0.30;0.30;;;4.10;99.90;;;;;;5009843;28;20180;-79
2021/04/16 00:26:36;;;;;;;0.50;0.40;;;4.10;99.90;;;;;;5008842;28;20179;-81
2021/04/16 00:29:02;;;;;;;0.50;0.33;;;4.00;99.90;;;;;;5010634;28;20222;-80
2021/04/16 00:31:30;;;;;;;0.30;0.30;;;4.00;99.90;;;;;;5008251;28;20278;-80
2021/04/16 00:33:56;;;;;;;0.40;0.40;;;4.00;99.90;;;;;;5007809;28;20190;-80
2021/04/16 00:36:22;;;;;;;0.87;0.50;;;4.00;99.90;;;;;;5007296;28;20192;-80
2021/04/16 00:38:49;;;;;;;0.43;0.33;;;4.00;99.90;;;;;;5005764;28;20222;-79
2021/04/16 00:41:18;;;;;;;0.63;0.50;;;4.10;99.90;;;;;;5006920;28;20241;-80
2021/04/16 00:43:44;;;;;;;0.20;0.20;;;4.10;99.90;;;;;;5007790;28;20218;-81
2021/04/16 00:46:13;;;;;;;0.40;0.40;;;4.10;99.90;;;;;;5006919;28;20253;-80
2021/04/16 00:48:49;;;;;;;0.30;0.30;;;4.10;99.90;;;;;;5010551;28;20203;-80
2021/04/16 00:51:58;;;;;;;0.30;0.30;;;4.10;99.90;;;;;;5005963;28;20183;-79
2021/04/16 00:54:41;;;;;;;0.30;0.30;;;4.10;99.90;;;;;;5006106;28;20195;-79
2021/04/16 00:57:10;;;;;;;0.30;0.27;;;4.10;99.90;;;;;;5006089;28;20211;-79
2021/04/16 00:59:41;;;;;;;0.50;0.40;;;4.10;99.90;;;;;;5015837;28;20231;-79
2021/04/16 01:02:07;;;;;;;0.20;0.20;;;4.00;99.90;;;;;;5005996;28;20669;-78
2021/04/16 01:04:33;;;;;;;0.40;0.37;;;4.00;99.90;;;;;;5007418;28;20199;-80
2021/04/16 01:07:00;;;;;;;0.30;0.30;;;3.90;99.90;;;;;;5007218;28;20180;-79
2021/04/16 01:09:27;;;;;;;0.30;0.30;;;3.80;99.90;;;;;;5021949;28;20242;-80
2021/04/16 01:11:52;;;;;;;0.70;0.43;;;3.70;99.90;;;;;;5005659;28;20191;-80
2021/04/16 01:14:18;;;;;;;0.47;0.30;;;3.60;99.90;;;;;;5006967;28;20301;-79
2021/04/16 01:16:45;;;;;;;0.20;0.20;;;3.50;99.90;;;;;;5005862;28;20195;-80
2021/04/16 01:19:25;;;;;;;0.30;0.30;;;3.50;99.90;;;;;;5012303;28;20270;-79
2021/04/16 01:22:02;;;;;;;0.20;0.20;;;3.50;99.90;;;;;;5006805;28;20198;-79
2021/04/16 01:24:33;;;;;;;0.40;0.40;;;3.40;99.90;;;;;;5005809;28;20179;-79
2021/04/16 01:26:59;;;;;;;0.60;0.30;;;3.40;99.90;;;;;;5004866;28;20184;-79
2021/04/16 01:29:27;;;;;;;0.50;0.40;;;3.50;99.90;;;;;;5005123;28;20207;-79
2021/04/16 01:31:53;;;;;;;0.80;0.50;;;3.40;99.90;;;;;;5006321;28;20238;-80
2021/04/16 01:34:23;;;;;;;0.30;0.30;;;3.30;99.90;;;;;;5023776;23;20277;-79
2021/04/16 01:36:52;;;;;;;0.20;0.20;;;3.30;99.90;;;;;;5026854;28;20249;-79
2021/04/16 01:39:19;;;;;;;1.10;0.50;;;3.20;99.90;;;;;;5036130;28;20575;-80
2021/04/16 01:41:45;;;;;;;0.37;0.30;;;3.20;99.90;;;;;;4999266;28;20179;-79
2021/04/16 01:44:13;;;;;;;0.30;0.30;;;3.20;99.90;;;;;;4999664;28;20192;-79
2021/04/16 01:46:57;;;;;;;0.80;0.60;;;3.20;99.90;;;;;;5001395;28;20188;-80
2021/04/16 01:49:37;;;;;;;0.30;0.30;;;3.20;99.90;;;;;;5000504;28;20318;-81
2021/04/16 01:52:05;;;;;;;0.20;0.20;;;3.10;99.90;;;;;;5015581;28;20179;-80
2021/04/16 01:54:38;;;;;;;0.60;0.60;;;3.10;99.90;;;;;;4998662;28;20180;-81
2021/04/16 01:57:10;;;;;;;1.03;0.40;;;3.10;99.90;;;;;;4999848;28;20184;-81
2021/04/16 01:59:39;;;;;;;0.37;0.37;;;3.00;99.90;;;;;;4998937;28;20212;-80
2021/04/16 02:02:08;;;;;;;0.40;0.30;;;3.00;99.90;;;;;;5013909;28;20180;-81
2021/04/16 02:04:34;;;;;;;0.40;0.40;;;3.10;99.90;;;;;;5014494;28;20180;-80
2021/04/16 02:07:00;;;;;;;0.40;0.33;;;3.00;99.90;;;;;;4997915;28;20187;-80
2021/04/16 02:09:29;;;;;;;0.37;0.37;;;3.10;99.90;;;;;;4997633;28;20219;-79
2021/04/16 02:11:55;;;;;;;0.30;0.30;;;3.20;99.90;;;;;;4998607;28;20222;-80
2021/04/16 02:14:24;;;;;;;0.47;0.27;;;3.20;99.90;;;;;;5002091;28;20219;-80
2021/04/16 02:16:56;;;;;;;0.40;0.30;;;3.10;99.90;;;;;;4998135;28;20259;-81
2021/04/16 02:19:22;;;;;;;0.43;0.40;;;3.10;99.90;;;;;;5014927;28;20211;-81
2021/04/16 02:21:48;;;;;;;1.23;0.40;;;3.20;99.90;;;;;;5000237;28;20728;-80
2021/04/16 02:24:15;;;;;;;0.50;0.40;;;3.10;99.90;;;;;;5001324;28;20188;-79
2021/04/16 02:26:40;;;;;;;0.30;0.30;;;3.20;99.90;;;;;;4999093;28;20188;-81
2021/04/16 02:29:09;;;;;;;0.30;0.30;;;3.20;99.90;;;;;;4998550;28;20204;-80
2021/04/16 02:31:42;;;;;;;0.47;0.47;;;3.20;99.90;;;;;;5011644;28;20187;-81
2021/04/16 02:34:09;;;;;;;0.63;0.53;;;3.20;99.90;;;;;;5006988;28;20586;-80
2021/04/16 02:36:34;;;;;;;0.47;0.40;;;3.20;99.90;;;;;;4997251;28;20201;-80
2021/04/16 02:39:00;;;;;;;0.20;0.20;;;3.20;99.90;;;;;;5014342;28;20219;-79
2021/04/16 02:41:25;;;;;;;0.30;0.30;;;3.20;99.90;;;;;;5000008;28;20203;-80
2021/04/16 02:43:51;;;;;;;0.40;0.40;;;3.10;99.90;;;;;;4999050;28;20192;-80
2021/04/16 02:46:17;;;;;;;0.23;0.23;;;3.10;99.90;;;;;;4999883;28;20211;-80
2021/04/16 02:48:43;;;;;;;1.13;0.70;;;3.10;99.90;;;;;;4994246;28;20212;-81
2021/04/16 02:51:09;;;;;;;0.50;0.50;;;3.10;99.90;;;;;;4996287;28;20191;-80
2021/04/16 02:53:34;;;;;;;0.33;0.33;;;3.10;99.90;;;;;;4997545;28;20184;-80
2021/04/16 02:56:00;;;;;;;0.30;0.30;;;3.10;99.90;;;;;;5013275;28;20238;-80
2021/04/16 02:58:26;;;;;;;0.43;0.40;;;3.10;99.90;;;;;;4996124;28;20211;-80
2021/04/16 03:00:51;;;;;;;0.30;0.30;;;3.10;99.90;;;;;;4997464;28;20191;-80
2021/04/16 03:03:17;;;;;;;0.30;0.30;;;3.10;99.90;;;;;;4997740;28;20258;-80
2021/04/16 03:05:42;;;;;;;0.87;0.60;;;3.10;99.90;;;;;;4996860;28;21239;-80
2021/04/16 03:08:08;;;;;;;0.40;0.40;;;3.20;99.90;;;;;;5012425;28;20187;-80
2021/04/16 03:10:35;;;;;;;0.70;0.37;;;3.30;99.90;;;;;;4997488;28;20354;-79
2021/04/16 03:13:01;;;;;;;0.30;0.30;;;3.30;99.90;;;;;;5004658;28;20677;-80
2021/04/16 03:15:27;;;;;;;0.30;0.30;;;3.20;99.90;;;;;;4997976;28;20211;-79
2021/04/16 03:17:53;;;;;;;0.30;0.30;;;3.30;99.90;;;;;;4993474;28;20246;-80
2021/04/16 03:20:22;;;;;;;0.70;0.70;;;3.30;99.90;;;;;;5010365;28;20250;-79
2021/04/16 03:22:48;;;;;;;0.23;0.23;;;3.30;99.90;;;;;;4994386;28;20219;-79
2021/04/16 03:25:14;;;;;;;0.30;0.30;;;3.30;99.90;;;;;;5012819;28;20216;-80
2021/04/16 03:27:40;;;;;;;0.40;0.30;;;3.50;99.90;;;;;;4996526;28;20242;-80
2021/04/16 03:30:10;;;;;;;0.40;0.40;;;3.40;99.90;;;;;;4994659;28;20216;-79
2021/04/16 03:32:35;;;;;;;0.20;0.20;;;3.40;99.90;;;;;;4996823;28;20251;-80
2021/04/16 03:35:02;;;;;;;0.47;0.40;;;3.30;99.90;;;;;;4993394;28;20212;-79
2021/04/16 03:37:27;;;;;;;1.60;0.97;;;3.30;99.90;;;;;;4995044;28;20218;-78
2021/04/16 03:39:53;;;;;;;0.33;0.33;;;3.40;99.90;;;;;;4994462;28;20196;-78
2021/04/16 03:42:18;;;;;;;0.63;0.40;;;3.40;99.90;;;;;;4993032;28;20251;-80
2021/04/16 03:44:44;;;;;;;0.50;0.50;;;3.50;99.90;;;;;;4994760;28;20424;-79
2021/04/16 03:47:10;;;;;;;0.27;0.27;;;3.50;99.90;;;;;;4994825;28;20219;-79
2021/04/16 03:49:36;;;;;;;0.40;0.40;;;3.50;99.90;;;;;;4997610;28;20546;-79
2021/04/16 03:52:03;;;;;;;0.37;0.37;;;3.50;99.90;;;;;;5005403;28;20194;-79
2021/04/16 03:54:30;;;;;;;0.30;0.30;;;3.40;99.90;;;;;;5005428;28;21022;-79
2021/04/16 03:56:56;;;;;;;0.50;0.47;;;3.40;99.90;;;;;;5014614;28;20732;-79
2021/04/16 03:59:24;;;;;;;0.30;0.30;;;3.40;99.90;;;;;;4997748;28;20850;-79
2021/04/16 04:01:50;;;;;;;0.67;0.50;;;3.50;99.90;;;;;;4996901;28;20199;-79
2021/04/16 04:04:17;;;;;;;0.50;0.33;;;3.60;99.90;;;;;;4997836;28;20195;-79
2021/04/16 04:06:42;;;;;;;0.37;0.37;;;3.50;99.90;;;;;;5005092;28;20184;-79
2021/04/16 04:09:09;;;;;;;0.47;0.43;;;3.50;99.90;;;;;;4998880;28;20643;-78
2021/04/16 04:11:35;;;;;;;0.20;0.20;;;3.60;99.90;;;;;;4999697;28;20199;-79
2021/04/16 04:14:01;;;;;;;0.43;0.43;;;3.60;99.90;;;;;;4998101;28;20188;-79
2021/04/16 04:16:28;;;;;;;0.40;0.40;;;3.50;99.90;;;;;;4997982;28;20318;-79
2021/04/16 04:18:54;;;;;;;0.30;0.30;;;3.50;99.90;;;;;;4996488;28;20277;-79
2021/04/16 04:21:20;;;;;;;0.60;0.50;;;3.50;99.90;;;;;;4997699;28;20697;-79
2021/04/16 04:23:45;;;;;;;0.63;0.40;;;3.50;99.90;;;;;;4999060;28;20313;-79
2021/04/16 04:26:11;;;;;;;0.57;0.57;;;3.50;99.90;;;;;;4994826;28;20268;-79
2021/04/16 04:28:37;;;;;;;0.70;0.70;;;3.60;99.90;;;;;;4998459;28;20223;-79
2021/04/16 04:31:02;;;;;;;0.60;0.60;;;3.50;99.90;;;;;;4996860;28;20183;-80
2021/04/16 04:33:28;;;;;;;0.63;0.60;;;3.50;99.90;;;;;;4997163;28;20180;-79
2021/04/16 04:35:54;;;;;;;0.40;0.40;;;3.50;99.90;;;;;;4997667;28;20301;-79
2021/04/16 04:38:19;;;;;;;0.90;0.80;;;3.50;99.90;;;;;;4997982;28;20749;-79
2021/04/16 04:40:45;;;;;;;0.70;0.50;;;3.60;99.90;;;;;;4994087;28;20214;-79
2021/04/16 04:43:12;;;;;;;1.77;0.73;;;3.70;99.90;;;;;;4996694;28;20192;-79
2021/04/16 04:45:37;;;;;;;1.23;0.80;;;3.70;99.90;;;;;;4997374;28;20183;-79
2021/04/16 04:48:04;;;;;;;1.17;0.87;;;3.70;99.90;;;;;;4997473;28;20281;-78
2021/04/16 04:50:29;;;;;;;0.50;0.50;;;3.70;99.90;;;;;;4997913;28;20212;-79
2021/04/16 04:52:56;;;;;;;0.60;0.50;;;3.70;99.90;;;;;;4997480;28;20183;-80
2021/04/16 04:55:28;;;;;;;1.20;0.53;;;3.70;99.90;;;;;;4998190;28;20785;-79
2021/04/16 04:57:53;;;;;;;1.13;0.80;;;3.80;99.90;;;;;;4999343;28;20215;-79
2021/04/16 05:00:20;;;;;;;0.97;0.77;;;3.70;99.90;;;;;;4995309;28;20218;-79
2021/04/16 05:02:45;;;;;;;0.80;0.70;;;3.70;99.90;;;;;;4997541;28;20202;-80
2021/04/16 05:05:13;;;;;;;1.20;1.00;;;3.80;99.90;;;;;;4998024;28;20637;-80
2021/04/16 05:07:39;;;;;;;0.63;0.50;;;3.90;99.90;;;;;;4995334;28;20278;-79
2021/04/16 05:10:07;;;;;;;1.60;1.00;;;3.90;99.90;;;;;;4994476;28;20209;-79
2021/04/16 05:12:33;;;;;;;2.50;1.10;;;4.00;99.90;;;;;;4998335;28;20192;-79
2021/04/16 05:14:59;;;;;;;0.90;0.77;;;3.90;99.90;;;;;;4996565;28;20203;-79
2021/04/16 05:17:24;;;;;;;0.83;0.60;;;4.00;99.90;;;;;;4996516;28;20238;-79
2021/04/16 05:19:50;;;;;;;1.60;0.93;;;4.10;99.90;;;;;;4995059;28;20629;-79
2021/04/16 05:22:16;;;;;;;1.07;0.80;;;4.20;99.90;;;;;;4995296;28;20191;-80
2021/04/16 05:24:41;;;;;;;1.37;0.80;;;4.30;99.90;;;;;;4993520;28;20184;-79
2021/04/16 05:27:13;;;;;;;0.80;0.63;;;4.40;99.90;;;;;;4997900;28;20270;-80
2021/04/16 05:29:39;;;;;;;0.50;0.50;;;4.40;99.90;;;;;;5011973;28;20257;-79
2021/04/16 05:32:05;;;;;;;0.77;0.50;;;4.50;99.90;;;;;;4995311;28;21207;-79
2021/04/16 05:34:31;;;;;;;1.17;0.83;;;4.50;99.90;;;;;;5012924;28;20204;-78
2021/04/16 05:36:57;;;;;;;0.93;0.50;;;4.60;99.90;;;;;;4995752;28;20191;-78
2021/04/16 05:39:22;;;;;;;0.57;0.47;;;4.60;99.90;;;;;;4994753;28;20311;-78
2021/04/16 05:41:48;;;;;;;0.50;0.50;;;4.50;99.90;;;;;;4996773;28;21017;-78
2021/04/16 05:44:14;;;;;;;1.10;0.70;;;4.50;99.90;;;;;;4993396;28;20934;-79
2021/04/16 05:46:40;;;;;;;2.67;0.97;;;4.60;99.90;;;;;;4993172;28;20199;-79
2021/04/16 05:49:05;;;;;;;2.43;1.40;;;4.60;99.90;;;;;;4996483;28;20242;-78
2021/04/16 05:51:32;;;;;;;1.43;0.93;;;4.60;99.90;;;;;;4994236;28;20211;-78
2021/04/16 05:53:58;;;;;;;0.53;0.50;;;4.70;99.90;;;;;;5002539;28;20548;-78
2021/04/16 05:56:23;;;;;;;1.30;1.07;;;4.70;99.90;;;;;;4994534;28;20200;-79
2021/04/16 05:58:49;;;;;;;0.57;0.57;;;4.80;99.90;;;;;;4996001;28;20215;-78
2021/04/16 06:01:15;;;;;;;1.50;1.40;;;5.00;99.90;;;;;;4995385;28;20188;-77
2021/04/16 06:03:42;;;;;;;2.47;0.77;;;5.00;99.90;;;;;;5008230;28;20192;-77
2021/04/16 06:06:08;;;;;;;1.17;1.07;;;5.10;99.90;;;;;;4997674;28;20184;-79
2021/04/16 06:08:34;;;;;;;0.77;0.70;;;5.30;99.90;;;;;;5004466;28;20195;-79
2021/04/16 06:11:00;;;;;;;1.90;1.20;;;5.70;99.90;;;;;;4993586;28;20212;-79
2021/04/16 06:13:27;;;;;;;1.13;0.80;;;5.70;99.90;;;;;;4994972;28;20322;-79
2021/04/16 06:15:53;;;;;;;2.20;0.80;;;5.80;99.90;;;;;;4994335;28;20657;-78
2021/04/16 06:18:21;;;;;;;0.70;0.70;;;5.70;99.90;;;;;;4993622;28;20295;-79
2021/04/16 06:20:47;;;;;;;0.73;0.57;;;5.60;99.90;;;;;;4994250;28;20199;-78
2021/04/16 06:23:13;;;;;;;0.50;0.50;;;5.30;99.90;;;;;;4994657;28;20184;-78
2021/04/16 06:25:38;;;;;;;0.73;0.43;;;5.20;99.90;;;;;;4993285;28;20184;-79
2021/04/16 06:28:06;;;;;;;0.80;0.73;;;5.30;99.90;;;;;;4993866;28;20298;-78
2021/04/16 06:30:31;;;;;;;0.53;0.53;;;5.30;99.90;;;;;;5009108;28;20214;-78
2021/04/16 06:33:06;;;;;;;0.70;0.70;;;5.20;99.90;;;;;;4994366;28;20184;-79
2021/04/16 06:35:34;;;;;;;0.83;0.70;;;5.30;99.90;;;;;;4994415;28;20690;-79
2021/04/16 06:38:00;;;;;;;1.23;1.13;;;5.30;99.90;;;;;;4994319;28;20283;-78
2021/04/16 06:40:29;;;;;;;1.00;0.87;;;5.40;99.90;;;;;;4994652;28;20773;-79
2021/04/16 06:42:54;;;;;;;1.07;0.83;;;5.40;99.90;;;;;;4995274;28;20188;-79
2021/04/16 06:45:30;;;;;;;1.70;0.97;;;5.40;99.90;;;;;;4995123;28;20230;-78
2021/04/16 06:48:03;;;;;;;1.53;0.97;;;5.50;99.90;;;;;;4994973;28;20556;-78
2021/04/16 06:50:33;;;;;;;1.43;1.10;;;5.50;99.90;;;;;;4996569;28;20211;-78
2021/04/16 06:53:05;;;;;;;0.63;0.63;;;5.50;99.90;;;;;;4993270;28;20198;-78
2021/04/16 06:55:39;;;;;;;0.60;0.57;;;5.50;99.90;;;;;;4995153;28;20239;-79
2021/04/16 06:58:11;;;;;;;0.67;0.57;;;5.40;99.90;;;;;;4996721;28;20270;-78
2021/04/16 07:00:39;;;;;;;6.30;0.80;;;5.40;99.90;;;;;;5012624;28;20213;-82
2021/04/16 07:03:17;;;;;;;1.00;1.00;;;5.50;99.90;;;;;;4995147;28;20207;-83
2021/04/16 07:05:57;;;;;;;1.73;0.60;;;5.70;99.90;;;;;;4994599;28;20175;-81
2021/04/16 07:08:34;;;;;;;0.80;0.70;;;5.80;99.90;;;;;;4994267;28;20207;-81
2021/04/16 07:11:02;;;;;;;1.57;0.60;;;5.80;99.90;;;;;;5010640;28;20956;-81
2021/04/16 07:13:38;;;;;;;0.70;0.70;;;5.70;99.90;;;;;;5002707;28;20254;-81
2021/04/16 07:16:05;;;;;;;0.60;0.60;;;5.90;99.90;;;;;;4994000;28;20199;-82
2021/04/16 07:18:37;;;;;;;1.37;1.20;;;5.90;99.90;;;;;;4995700;28;20711;-81
2021/04/16 07:21:04;;;;;;;1.50;1.00;;;6.10;99.90;;;;;;5003198;28;20185;-81
2021/04/16 07:23:33;;;;;;;0.90;0.70;;;6.40;99.90;;;;;;4996685;28;20656;-82
2021/04/16 07:26:15;;;;;;;0.60;0.60;;;6.50;99.90;;;;;;5014599;28;20179;-82
2021/04/16 07:28:44;;;;;;;1.03;0.83;;;6.70;99.90;;;;;;4999336;28;20195;-81
2021/04/16 07:31:28;;;;;;;1.10;0.60;;;6.80;99.90;;;;;;4998447;28;20335;-81
2021/04/16 07:33:55;;;;;;;0.50;0.50;;;6.80;99.90;;;;;;4999980;28;20184;-80
2021/04/16 07:36:30;;;;;;;1.80;0.40;;;6.90;99.90;;;;;;4996890;28;20222;-81
2021/04/16 07:39:15;;;;;;;0.40;0.40;;;7.00;99.90;;;;;;5006083;28;20203;-80
2021/04/16 07:41:48;;;;;;;1.20;0.90;;;7.30;99.90;;;;;;4996396;28;20180;-78
2021/04/16 07:44:23;;;;;;;0.30;0.30;;;7.20;99.90;;;;;;4994908;28;20212;-79
2021/04/16 07:46:53;;;;;;;0.60;0.50;;;7.30;99.90;;;;;;5004134;28;20180;-78
2021/04/16 07:49:23;;;;;;;0.40;0.40;;;7.10;99.90;;;;;;4994586;28;20782;-79
2021/04/16 07:51:57;;;;;;;1.47;0.70;;;7.10;99.90;;;;;;4998055;28;20175;-78
2021/04/16 07:54:29;;;;;;;0.97;0.70;;;7.00;99.90;;;;;;4997912;28;20186;-79
2021/04/16 07:57:11;;;;;;;0.43;0.43;;;7.00;99.90;;;;;;4997512;28;20188;-80
2021/04/16 08:00:13;;;;;;;0.93;0.63;;;7.10;99.90;;;;;;4998567;28;20285;-79
2021/04/16 08:03:01;;;;;;;0.53;0.53;;;7.00;99.90;;;;;;4994566;28;20573;-80
2021/04/16 08:05:31;;;;;;;0.53;0.53;;;7.00;99.90;;;;;;4993602;28;20202;-79
2021/04/16 08:08:29;;;;;;;0.93;0.50;;;6.90;99.90;;;;;;4998419;28;20180;-79
2021/04/16 08:11:00;;;;;;;0.87;0.80;;;7.10;99.90;;;;;;4995749;28;20542;-79
2021/04/16 08:13:29;;;;;;;0.40;0.40;;;7.20;99.90;;;;;;4996438;28;20312;-78
2021/04/16 08:16:20;;;;;;;0.70;0.70;;;7.20;99.90;;;;;;5003814;28;20184;-79
2021/04/16 08:19:18;;;;;;;0.40;0.40;;;7.10;99.90;;;;;;4995750;28;20243;-80
2021/04/16 08:21:47;;;;;;;0.40;0.40;;;7.30;99.90;;;;;;4996130;28;20239;-79
2021/04/16 08:24:55;;;;;;;0.40;0.33;;;7.40;99.90;;;;;;5012643;28;20194;-79
2021/04/16 08:27:37;;;;;;;0.87;0.77;;;7.20;99.90;;;;;;4948980;28;20181;-79
2021/04/16 08:30:15;;;;;;;2.87;0.40;;;7.20;99.90;;;;;;5009087;28;20208;-79
2021/04/16 08:32:57;;;;;;;0.40;0.40;;;7.40;99.90;;;;;;4995382;28;20206;-79
2021/04/16 08:35:31;;;;;;;0.40;0.40;;;7.50;99.90;;;;;;4992444;28;20199;-79
2021/04/16 08:38:07;;;;;;;0.50;0.50;;;7.50;99.90;;;;;;5009411;28;20227;-78
2021/04/16 08:40:38;;;;;;;0.37;0.27;;;7.80;99.90;;;;;;5011595;28;20210;-79
2021/04/16 08:43:05;;;;;;;0.30;0.30;;;8.30;99.90;;;;;;5011228;28;20192;-78
2021/04/16 08:45:34;;;;;;;0.50;0.50;;;8.30;99.90;;;;;;4996560;28;20186;-79
2021/04/16 08:48:14;;;;;;;0.30;0.30;;;8.50;99.90;;;;;;4991163;28;20183;-79
2021/04/16 08:50:49;;;;;;;0.40;0.40;;;8.70;99.90;;;;;;4995911;28;20723;-78
2021/04/16 08:53:15;;;;;;;0.50;0.50;;;8.80;99.90;;;;;;5012089;28;20179;-79
2021/04/16 08:55:43;;;;;;;2.03;0.53;;;8.90;99.90;;;;;;4995450;28;20892;-80
2021/04/16 08:58:31;;;;;;;0.40;0.40;;;8.90;99.90;;;;;;4994088;28;20211;-79
2021/04/16 09:01:08;;;;;;;3.47;0.50;;;9.10;99.90;;;;;;4993980;28;20575;-81
2021/04/16 09:03:50;;;;;;;0.50;0.50;;;9.10;99.90;;;;;;4996826;28;20179;-79
2021/04/16 09:06:47;;;;;;;0.50;0.40;;;9.40;99.90;;;;;;4995988;28;20215;-77
2021/04/16 09:09:34;;;;;;;0.60;0.60;;;9.60;99.90;;;;;;4995935;28;20199;-77
2021/04/16 09:12:00;;;;;;;0.40;0.30;;;9.20;99.90;;;;;;4994061;28;20180;-80
2021/04/16 09:14:26;;;;;;;0.70;0.70;;;9.30;99.90;;;;;;4994184;28;20194;-81
2021/04/16 09:16:55;;;;;;;0.20;0.20;;;9.50;99.90;;;;;;4994651;28;20182;-79
2021/04/16 09:19:23;;;;;;;1.30;0.53;;;9.20;99.90;;;;;;4996143;28;20215;-80
2021/04/16 09:22:04;;;;;;;0.37;0.37;;;9.20;99.90;;;;;;4993531;28;20184;-79
2021/04/16 09:24:41;;;;;;;0.40;0.30;;;9.10;99.90;;;;;;4995822;28;20184;-78
2021/04/16 09:27:34;;;;;;;0.70;0.50;;;9.00;99.70;;;;;;4997337;28;20318;-79
2021/04/16 09:29:59;;;;;;;0.40;0.40;;;9.30;99.90;;;;;;5002759;28;20196;-79
2021/04/16 09:32:41;;;;;;;0.50;0.50;;;9.30;99.60;;;;;;4995417;28;20356;-79
2021/04/16 09:35:12;;;;;;;0.30;0.30;;;9.40;99.00;;;;;;4995020;28;20286;-79
2021/04/16 09:37:49;;;;;;;0.37;0.37;;;9.70;99.60;;;;;;4994535;28;20214;-80
2021/04/16 09:40:25;;;;;;;0.40;0.40;;;9.70;99.10;;;;;;4996931;28;20207;-79
2021/04/16 09:42:54;;;;;;;0.30;0.30;;;9.70;98.30;;;;;;5003086;28;20271;-79
2021/04/16 09:45:31;;;;;;;1.43;0.50;;;9.60;97.50;;;;;;4995134;28;20259;-78
2021/04/16 09:48:05;;;;;;;0.37;0.37;;;9.70;97.50;;;;;;5002704;28;20254;-81
2021/04/16 09:50:35;;;;;;;0.50;0.50;;;9.80;97.70;;;;;;4997334;28;20291;-80
2021/04/16 09:53:19;;;;;;;0.37;0.37;;;9.80;97.20;;;;;;4994340;28;20270;-80
2021/04/16 09:56:12;;;;;;;0.47;0.30;;;10.40;96.60;;;;;;4995424;28;20195;-80
2021/04/16 09:58:59;;;;;;;0.70;0.43;;;10.40;96.30;;;;;;4992659;28;20212;-80
2021/04/16 10:01:27;;;;;;;1.03;0.77;;;10.30;96.10;;;;;;4994379;28;20215;-79
2021/04/16 10:03:55;;;;;;;1.67;0.43;;;10.40;95.20;;;;;;4996275;28;20218;-80
2021/04/16 10:06:29;;;;;;;1.27;0.60;;;10.70;95.60;;;;;;4993950;28;20275;-80
2021/04/16 10:09:15;;;;;;;0.60;0.60;;;11.10;94.70;;;;;;4996499;28;20305;-80
2021/04/16 10:11:56;;;;;;;1.63;0.43;;;10.60;95.20;;;;;;5003107;28;20278;-80
2021/04/16 10:14:24;;;;;;;1.27;0.67;;;10.70;94.80;;;;;;4994899;28;20195;-80
2021/04/16 10:16:58;;;;;;;0.30;0.30;;;10.80;93.70;;;;;;4993013;28;20192;-80
2021/04/16 10:19:34;;;;;;;0.70;0.60;;;10.60;92.80;;;;;;5001988;28;20301;-81
2021/04/16 10:22:09;;;;;;;0.93;0.60;;;10.60;94.20;;;;;;4995246;28;20584;-81
2021/04/16 11:45:01;;;;;;;1.83;0.80;;;11.50;90.30;;;;;;5000161;28;20180;-80
2021/04/16 12:39:21;;;;;;;1.50;1.37;;;12.10;80.10;;;;;;4998022;28;20309;-80
2021/04/16 12:41:54;;;;;;;2.77;2.47;;;12.50;84.10;;;;;;5014520;28;20631;-77
2021/04/16 12:44:35;;;;;;;2.17;1.97;;;12.50;81.10;;;;;;4997944;28;20265;-77
2021/04/16 12:47:05;;;;;;;14.10;8.20;;;12.60;81.00;;;;;;4998225;28;20634;-79
2021/04/16 12:49:30;;;;;;;1.07;0.90;;;12.50;84.20;;;;;;5005097;28;20216;-80
2021/04/16 12:51:56;;;;;;;4.03;2.50;;;12.50;82.20;;;;;;4994920;28;20306;-82
2021/04/16 12:54:22;;;;;;;28.75;17.70;;;12.40;81.50;;;;;;4994686;28;20711;-80
2021/04/16 12:56:49;;;;;;;6.67;4.20;;;12.40;81.10;;;;;;4996017;28;20184;-80
2021/04/16 12:59:20;;;;;;;59.03;28.70;;;12.30;83.30;;;;;;4997497;28;20243;-80
2021/04/16 13:01:49;;;;;;;21.33;10.30;;;12.30;83.60;;;;;;4997509;28;20264;-80
2021/04/16 13:04:18;;;;;;;2.70;1.80;;;12.40;82.70;;;;;;4997131;28;20194;-80
2021/04/16 13:06:46;;;;;;;17.90;10.88;;;12.60;84.40;;;;;;4994859;28;20168;-79
2021/04/16 13:09:14;;;;;;;1.30;1.20;;;12.50;82.70;;;;;;4995955;28;20681;-79
2021/04/16 13:11:40;;;;;;;6.90;4.83;;;12.20;81.70;;;;;;5013793;28;20194;-80
2021/04/16 13:14:06;;;;;;;1.80;1.40;;;12.00;82.70;;;;;;4995780;28;20189;-80
2021/04/16 13:16:32;;;;;;;2.40;1.80;;;12.40;83.00;;;;;;5011211;28;20341;-79
2021/04/16 13:19:03;;;;;;;1.37;1.20;;;12.00;81.20;;;;;;4995733;28;20689;-80
2021/04/16 13:21:40;;;;;;;2.57;2.30;;;12.00;82.30;;;;;;4995085;28;20238;-80
2021/04/16 13:24:07;;;;;;;1.20;1.10;;;12.10;80.90;;;;;;4996586;28;20190;-80
2021/04/16 13:26:33;;;;;;;1.17;1.08;;;12.30;80.90;;;;;;4996918;28;20643;-80
2021/04/16 13:28:59;;;;;;;1.75;0.95;;;12.30;79.40;;;;;;5013134;28;20218;-80
2021/04/16 13:31:29;;;;;;;0.82;0.73;;;12.50;77.50;;;;;;4996552;28;20196;-79
2021/04/16 13:33:54;;;;;;;0.82;0.82;;;12.80;76.50;;;;;;4998591;28;20184;-80
2021/04/16 13:36:23;;;;;;;0.60;0.60;;;12.20;77.20;;;;;;5004808;28;20566;-80
2021/04/16 13:38:50;;;;;;;0.70;0.70;;;12.20;77.40;;;;;;4997261;28;20689;-80
2021/04/16 13:41:17;;;;;;;0.73;0.60;;;11.90;78.10;;;;;;5005093;28;20183;-79
2021/04/16 13:43:42;;;;;;;1.40;0.90;;;12.10;77.30;;;;;;5012779;28;20349;-80
2021/04/16 13:46:14;;;;;;;0.40;0.40;;;12.20;76.20;;;;;;4997143;28;20651;-79
2021/04/16 13:48:42;;;;;;;0.40;0.40;;;12.40;77.20;;;;;;4996436;28;20196;-80
2021/04/16 13:51:07;;;;;;;1.00;0.90;;;12.30;76.10;;;;;;4994749;28;20219;-79
2021/04/16 13:53:33;;;;;;;1.27;0.80;;;12.50;78.20;;;;;;4997327;28;20574;-79
2021/04/16 13:55:59;;;;;;;1.63;1.40;;;12.70;78.90;;;;;;4996670;28;20255;-80
2021/04/16 13:58:24;;;;;;;0.55;0.55;;;12.60;77.30;;;;;;4996307;28;20261;-79
2021/04/16 14:00:50;;;;;;;1.05;0.88;;;12.50;78.30;;;;;;5011027;28;20604;-79
2021/04/16 14:03:30;;;;;;;1.05;0.85;;;12.50;77.70;;;;;;4996381;28;20179;-80
2021/04/16 14:05:59;;;;;;;1.13;0.73;;;12.60;79.30;;;;;;4996990;28;20227;-79
2021/04/16 14:08:31;;;;;;;1.80;1.70;;;12.50;81.70;;;;;;5002092;28;20191;-79
2021/04/16 14:10:57;;;;;;;2.27;1.53;;;12.60;82.00;;;;;;5010970;28;20184;-80
2021/04/16 14:13:23;;;;;;;4.07;1.40;;;12.60;83.10;;;;;;5009790;28;20215;-78
2021/04/16 14:15:49;;;;;;;3.80;2.13;;;12.30;83.70;;;;;;4994831;28;20670;-79
2021/04/16 14:18:38;;;;;;;9.70;4.40;;;12.20;84.70;;;;;;4995103;28;20215;-79
2021/04/16 14:21:10;;;;;;;6.65;2.90;;;12.00;83.20;;;;;;4993940;28;20190;-81
2021/04/16 14:23:36;;;;;;;3.47;1.60;;;12.10;83.30;;;;;;4995762;28;20204;-79
2021/04/16 14:26:04;;;;;;;1.20;1.10;;;12.30;83.70;;;;;;5010350;28;20217;-80
2021/04/16 14:28:29;;;;;;;0.77;0.60;;;12.30;81.40;;;;;;5010429;28;20793;-79
2021/04/16 14:30:55;;;;;;;1.67;1.17;;;12.10;82.30;;;;;;4993892;28;20270;-79
2021/04/16 14:33:30;;;;;;;9.63;5.53;;;12.00;83.00;;;;;;4995085;28;20203;-81
2021/04/16 14:35:57;;;;;;;13.63;7.57;;;11.90;83.60;;;;;;5011802;28;20199;-81
2021/04/16 14:38:24;;;;;;;9.20;5.47;;;11.90;84.80;;;;;;4994660;28;20223;-82
2021/04/16 14:40:50;;;;;;;9.13;4.43;;;11.80;84.20;;;;;;5010847;28;20202;-81
2021/04/16 14:43:16;;;;;;;21.37;9.13;;;11.50;85.80;;;;;;4995556;28;20658;-82
2021/04/16 14:45:48;;;;;;;14.87;6.43;;;11.50;86.80;;;;;;4996320;28;20194;-82
2021/04/16 14:48:15;;;;;;;0.60;0.60;;;11.50;88.90;;;;;;4998514;28;20218;-83
2021/04/16 14:50:41;;;;;;;3.77;0.80;;;11.60;88.90;;;;;;4997726;28;20207;-82
2021/04/16 14:53:21;;;;;;;1.73;0.50;;;11.50;88.00;;;;;;5000041;28;20270;-82
2021/04/16 14:55:47;;;;;;;0.40;0.40;;;11.40;87.60;;;;;;4999090;28;20179;-82
2021/04/16 14:58:18;;;;;;;0.80;0.60;;;11.30;89.10;;;;;;4997411;28;20208;-80
2021/04/16 15:00:44;;;;;;;0.73;0.50;;;11.30;88.20;;;;;;4995732;28;20204;-83
2021/04/16 15:03:10;;;;;;;2.33;1.40;;;11.40;87.40;;;;;;4998727;28;21161;-83
2021/04/16 15:05:37;;;;;;;11.63;8.20;;;11.30;87.90;;;;;;5000890;28;20220;-83
2021/04/16 15:08:12;;;;;;;7.40;5.00;;;11.20;85.90;;;;;;5001437;28;20187;-82
2021/04/16 15:10:42;;;;;;;6.90;5.17;;;11.20;86.90;;;;;;5003691;28;20211;-82
2021/04/16 15:13:12;;;;;;;4.13;3.33;;;10.90;86.20;;;;;;5001876;28;20334;-83
2021/04/16 15:15:42;;;;;;;1.93;1.67;;;10.90;86.40;;;;;;5001126;28;20229;-82
2021/04/16 15:18:09;;;;;;;1.70;1.20;;;10.60;87.20;;;;;;4999460;28;20204;-83
2021/04/16 15:20:37;;;;;;;2.30;1.87;;;10.50;88.00;;;;;;4999028;28;20216;-78